createdAt,value
2023-04-26T00:03:10.883Z,5.6
2023-04-26T00:07:54.068Z,5.4
2023-04-26T00:12:37.386Z,5.4
2023-04-26T00:17:20.222Z,5.2
2023-04-26T00:26:46.744Z,5
2023-04-26T00:31:30.045Z,5.1
2023-04-26T00:36:13.263Z,5
2023-04-26T00:40:56.579Z,4.9
2023-04-26T00:45:39.822Z,4.9
2023-04-26T00:50:23.124Z,4.9
2023-04-26T00:55:06.340Z,4.8
2023-04-26T00:59:49.650Z,4.6
2023-04-26T01:09:16.192Z,4.3
2023-04-26T01:18:42.826Z,4.2
2023-04-26T01:23:25.562Z,4.2
2023-04-26T01:28:08.809Z,3.9
2023-04-26T01:37:35.422Z,3.6
2023-04-26T01:42:18.604Z,3.4
2023-04-26T01:56:28.362Z,3.8
2023-04-26T02:01:11.675Z,3.8
2023-04-26T02:10:38.210Z,3.5
2023-04-26T02:15:21.423Z,3.3
2023-04-26T02:24:47.963Z,3.3
2023-04-26T02:29:31.360Z,3
2023-04-26T02:34:14.489Z,2.9
2023-04-26T02:48:23.936Z,3.1
2023-04-26T02:53:07.157Z,3.4
2023-04-26T02:57:50.578Z,3.3
2023-04-26T03:02:33.689Z,3.3
2023-04-26T03:07:17.009Z,3.2
2023-04-26T03:12:00.239Z,3.4
2023-04-26T03:16:43.550Z,3.4
2023-04-26T03:21:26.760Z,3.4
2023-04-26T03:26:10.075Z,3.1
2023-04-26T03:30:53.325Z,3.1
2023-04-26T03:35:36.614Z,3
2023-04-26T03:40:19.838Z,3
2023-04-26T03:49:45.976Z,2.8
2023-04-26T03:54:29.186Z,2.7
2023-04-26T03:59:12.552Z,2.6
2023-04-26T04:03:55.868Z,2.6
2023-04-26T04:08:39.188Z,2.6
2023-04-26T04:13:22.365Z,2.8
2023-04-26T04:18:05.560Z,3
2023-04-26T04:22:48.886Z,3
2023-04-26T04:32:15.446Z,2.7
2023-04-26T04:36:58.641Z,2.6
2023-04-26T04:41:41.961Z,2.5
2023-04-26T04:46:25.168Z,2.7
2023-04-26T04:51:08.489Z,2.7
2023-04-26T04:55:51.334Z,2.9
2023-04-26T05:00:34.522Z,2.9
2023-04-26T05:05:17.945Z,2.9
2023-04-26T05:10:01.067Z,3
2023-04-26T05:14:44.385Z,3.1
2023-04-26T05:19:27.614Z,3
2023-04-26T05:24:11.020Z,3.1
2023-04-26T05:28:54.124Z,3.3
2023-04-26T05:33:37.442Z,3.5
2023-04-26T05:38:20.726Z,3.6
2023-04-26T05:47:47.283Z,3.8
2023-04-26T05:52:30.625Z,3.9
2023-04-26T05:57:13.833Z,4.1
2023-04-26T06:01:57.074Z,4
2023-04-26T06:06:40.362Z,4.2
2023-04-26T06:11:23.711Z,4.4
2023-04-26T06:16:06.929Z,4.4
2023-04-26T06:20:50.100Z,4.7
2023-04-26T06:25:33.129Z,4.6
2023-04-26T06:30:16.342Z,4.5
2023-04-26T06:34:59.756Z,4.9
2023-04-26T06:39:42.878Z,5.1
2023-04-26T06:44:25.831Z,5.1
2023-04-26T06:49:09.182Z,5.2
2023-04-26T06:53:52.475Z,5.5
2023-04-26T06:58:35.548Z,5.6
2023-04-26T07:03:18.791Z,5.6
2023-04-26T07:08:02.124Z,5.9
2023-04-26T07:12:45.343Z,5.9
2023-04-26T07:17:28.396Z,6
2023-04-26T07:22:11.662Z,6.6
2023-04-26T07:26:54.872Z,6.9
2023-04-26T07:31:38.191Z,7.3
2023-04-26T07:36:21.057Z,7.9
2023-04-26T07:45:47.564Z,10.8
2023-04-26T07:50:30.800Z,9
2023-04-26T07:59:57.297Z,8.8
2023-04-26T08:04:40.615Z,10.9
2023-04-26T08:09:23.836Z,12.9
2023-04-26T08:14:07.276Z,10.9
2023-04-26T08:18:50.369Z,9
2023-04-26T08:23:33.383Z,10.1
2023-04-26T08:28:16.752Z,11.4
2023-04-26T08:32:59.917Z,11
2023-04-26T08:37:43.320Z,10.4
2023-04-26T08:42:26.450Z,10.6
2023-04-26T08:47:09.270Z,10.5
2023-04-26T08:56:35.811Z,12.1
2023-04-26T09:01:19.105Z,11.4
2023-04-26T09:06:04.801Z,9.2
2023-04-26T09:10:45.867Z,9.1
2023-04-26T09:15:28.896Z,9.4
2023-04-26T09:20:12.100Z,11.2
2023-04-26T09:24:55.413Z,13.4
2023-04-26T09:29:38.641Z,11.8
2023-04-26T09:34:21.946Z,10.2
2023-04-26T09:43:48.485Z,9.9
2023-04-26T09:48:31.693Z,10.1
2023-04-26T09:53:14.796Z,9.5
2023-04-26T10:02:41.022Z,13.6
2023-04-26T10:07:24.248Z,12.1
2023-04-26T10:12:07.450Z,10.7
2023-04-26T10:16:50.749Z,11.5
2023-04-26T10:21:33.953Z,11.1
2023-04-26T10:26:17.295Z,13.7
2023-04-26T10:31:00.480Z,13.9
2023-04-26T10:35:43.704Z,13.5
2023-04-26T10:40:27.070Z,11.9
2023-04-26T10:45:10.264Z,11.4
2023-04-26T10:49:53.326Z,11.9
2023-04-26T10:54:36.482Z,11.6
2023-04-26T10:59:19.777Z,12.2
2023-04-26T11:04:02.702Z,12
2023-04-26T11:08:45.786Z,15.1
2023-04-26T11:13:29.109Z,14.8
2023-04-26T11:18:12.336Z,12.5
2023-04-26T11:22:55.650Z,12
2023-04-26T11:27:38.868Z,13.9
2023-04-26T11:32:22.187Z,12.4
2023-04-26T11:41:48.913Z,16.6
2023-04-26T11:46:32.082Z,15.8
2023-04-26T11:51:15.408Z,14.8
2023-04-26T11:55:58.176Z,14.1
2023-04-26T12:00:41.515Z,13.7
2023-04-26T12:05:24.710Z,13.5
2023-04-26T12:10:07.994Z,13.1
2023-04-26T12:14:51.401Z,13.7
2023-04-26T12:19:34.532Z,15.1
2023-04-26T12:24:17.925Z,15.8
2023-04-26T12:29:01.003Z,14.3
2023-04-26T12:33:43.416Z,14.9
2023-04-26T12:38:25.500Z,15.4
2023-04-26T12:43:08.149Z,13.9
2023-04-26T12:47:50.866Z,13.3
2023-04-26T12:52:33.583Z,13.7
2023-04-26T13:06:41.731Z,15.3
2023-04-26T13:11:24.449Z,14.7
2023-04-26T13:25:32.700Z,17.8
2023-04-26T13:30:15.408Z,15.6
2023-04-26T13:34:58.137Z,15.5
2023-04-26T13:39:40.851Z,19.8
2023-04-26T13:49:06.382Z,19.8
2023-04-26T13:53:49.093Z,16.6
2023-04-26T13:58:31.815Z,19
2023-04-26T14:03:14.537Z,19.7
2023-04-26T14:07:57.300Z,20
2023-04-26T14:12:39.267Z,20.5
2023-04-26T14:17:22.072Z,19.6
2023-04-26T14:22:04.800Z,19.2
2023-04-26T14:31:30.386Z,22.8
2023-04-26T14:36:12.323Z,18
2023-04-26T14:40:54.966Z,14.9
2023-04-26T14:45:37.682Z,18.2
2023-04-26T14:50:20.403Z,19.2
2023-04-26T14:55:03.120Z,16.4
2023-04-26T14:59:45.988Z,15
2023-04-26T15:04:28.648Z,14.2
2023-04-26T15:09:11.390Z,14
2023-04-26T15:13:54.090Z,17.5
2023-04-26T15:18:36.803Z,16.3
2023-04-26T15:23:19.522Z,17
2023-04-26T15:32:44.957Z,17.8
2023-04-26T15:42:10.645Z,19.7
2023-04-26T15:46:52.499Z,19.1
2023-04-26T15:51:35.221Z,18.3
2023-04-26T15:56:17.942Z,20.7
2023-04-26T16:01:00.653Z,20.2
2023-04-26T16:05:43.471Z,18.5
2023-04-26T16:19:51.629Z,16.9
2023-04-26T16:24:34.339Z,15.2
2023-04-26T16:33:59.779Z,13.6
2023-04-26T16:38:42.761Z,13.8
2023-04-26T16:43:25.383Z,15.5
2023-04-26T16:52:50.803Z,17.1
2023-04-26T16:57:33.481Z,15.3
2023-04-26T17:02:16.193Z,16
2023-04-26T17:06:58.920Z,16.5
2023-04-26T17:11:41.620Z,15
2023-04-26T17:16:24.536Z,13.5
2023-04-26T17:21:07.150Z,13.2
2023-04-26T17:25:49.955Z,13.9
2023-04-26T17:35:15.351Z,12.2
2023-04-26T17:39:58.032Z,11.9
2023-04-26T17:44:41.356Z,12
2023-04-26T17:49:24.547Z,11.4
2023-04-26T17:54:07.890Z,11.4
2023-04-26T18:03:34.397Z,11.2
2023-04-26T18:08:17.620Z,10.6
2023-04-26T18:17:44.156Z,10.3
2023-04-26T18:22:27.507Z,10.2
2023-04-26T18:27:10.684Z,10.1
2023-04-26T18:31:54.004Z,9.8
2023-04-26T18:36:37.215Z,9.6
2023-04-26T18:41:20.629Z,9.5
2023-04-26T18:46:04.645Z,9.4
2023-04-26T18:50:48.878Z,9.1
2023-04-26T18:55:33.090Z,9.1
2023-04-26T19:00:17.225Z,9.1
2023-04-26T19:05:01.421Z,9
2023-04-26T19:09:45.849Z,9
2023-04-26T19:14:29.865Z,8.6
2023-04-26T19:19:14.082Z,8.6
2023-04-26T19:23:58.204Z,8.2
2023-04-26T19:28:42.429Z,8.4
2023-04-26T19:33:26.647Z,8.2
2023-04-26T19:38:10.755Z,8
2023-04-26T19:47:39.601Z,7.4
2023-04-26T19:52:23.725Z,7.3
2023-04-26T19:57:07.960Z,7
2023-04-26T20:01:52.301Z,7
2023-04-26T20:06:36.544Z,6.7
2023-04-26T20:11:20.640Z,6.8
2023-04-26T20:16:04.933Z,6.6
2023-04-26T20:20:49.034Z,6.5
2023-04-26T20:25:33.137Z,6.2
2023-04-26T20:30:17.287Z,6.3
2023-04-26T20:35:01.782Z,6.3
2023-04-26T20:39:45.989Z,6.1
2023-04-26T20:44:30.108Z,5.9
2023-04-26T20:49:14.332Z,5.7
2023-04-26T20:53:58.445Z,5.7
2023-04-26T20:58:42.662Z,5.7
2023-04-26T21:03:26.886Z,5.6
2023-04-26T21:08:11.504Z,5.3
2023-04-26T21:12:55.821Z,5.5
2023-04-26T21:17:40.042Z,5.3
2023-04-26T21:22:24.159Z,5.2
2023-04-26T21:27:08.386Z,5.1
2023-04-26T21:31:52.563Z,4.8
2023-04-26T21:36:36.720Z,5
2023-04-26T21:41:20.851Z,4.7
2023-04-26T21:46:05.066Z,4.7
2023-04-26T21:50:49.177Z,4.7
2023-04-26T21:55:33.415Z,4.8
2023-04-26T22:00:17.606Z,4.7
2023-04-26T22:05:01.726Z,4.6
2023-04-26T22:09:46.445Z,4.7
2023-04-26T22:14:30.755Z,4.6
2023-04-26T22:19:14.875Z,4.5
2023-04-26T22:23:59.101Z,4.2
2023-04-26T22:28:43.215Z,4.5
2023-04-26T22:33:27.537Z,4.6
2023-04-26T22:38:11.551Z,4.4
2023-04-26T22:42:55.774Z,4.5
2023-04-26T22:47:39.983Z,4.7
2023-04-26T22:52:24.105Z,4.7
2023-04-26T22:57:08.323Z,4.6
2023-04-26T23:01:52.442Z,4.7
2023-04-26T23:06:36.671Z,4.7
2023-04-26T23:11:20.820Z,4.8
2023-04-26T23:16:05.193Z,4.7
2023-04-26T23:20:49.513Z,4.6
2023-04-26T23:25:33.633Z,4.9
2023-04-26T23:30:17.853Z,4.7
2023-04-26T23:35:01.970Z,4.6
2023-04-26T23:39:46.188Z,4.6
2023-04-26T23:44:30.307Z,4.4
2023-04-26T23:49:14.524Z,4.4
2023-04-26T23:53:58.747Z,4.5
2023-04-26T23:58:42.862Z,4.5
